Elkhart, IN

4:26 AM EDT on May 26, 2015 (GMT -0400)
Goshen Municipal | | Change Station
CLOSE
Current Station
Airport
Location: Goshen,
Elevation: 827 ft
Nearby Weather Stations

Elev 827 ft 41.53 °N, 85.79 °W | Updated 33 minutes ago

Partly Cloudy
Partly Cloudy
67 °F
Feels Like 67 °F
N
8
Wind Variable Wind from South

Today
High -- | Low -- °F
--% Chance of Precip.
Yesterday
High -- | Low -- °F
Precip. -- in
6:15 AM 9:07 PM
First Quarter, 56% visible
Pressure 30.00 in
Visibility 9.0 miles
Clouds Overcast 1300 ft
Dew Point 64 °F
Humidity 90%
Rainfall 0.00 in
Snow Depth Not available.
UV 0 out of 12
Pollen 9.70 out of 12
Air Quality Not available.
Flu Activity Sporadic
METAR KGSH 260753Z AUTO 19007KT 9SM OVC013 19/18 A3001 RMK AO2 SLP157 T01940178 TSNO

More Conditions Fewer Conditions

Pressure 30.00 in
Visibility 9.0 miles
Clouds Overcast 1300 ft
Dew Point 64 °F
Humidity 90%
Rainfall 0.00 in
Snow Depth Not available.
UV 0 out of 12
Pollen 9.70 out of 12
Air Quality Not available.
Flu Activity Sporadic
METAR KGSH 260753Z AUTO 19007KT 9SM OVC013 19/18 A3001 RMK AO2 SLP157 T01940178 TSNO

More Conditions Fewer Conditions

10-Day Weather Forecast

Almanac

Astronomy

May. 26, 2015 Rise Set
Actual Time
Civil Twilight
Nautical Twilight
Astronomical Twilight
Moon
Length of Visible Light
Length of Day
Tomorrow will be .
, % of the Moon is Illuminated

Today's Extremes

State Highs State Lows

Community

WunderPhotos

Upload Photos

1,824,302 photos uploaded!

WunderBlogs® & News

Nearby

Air Quality

  Air Quality AQ Index Pollutant
Not available.

Snow Depth

Station Depth Elevation

Earthquake Activity

City Distance Mag. Time & Date
Minimum magnitude displayed is 2.5.

Coastal Water Temperatures

Place Temperature

Stations

Nearby Weather Stations

Station Location Temp. Windchill Dew Point Humidity Wind Precip. Elev Updated Type